Villa Flores, Puerto Rico
Current Conditions -  °F | °C
As of 11:53 AM on Thursday 27 Nov 2014 (Local Time) from TJNR Reporting Station
Few Clouds Few Clouds  
Wind Chill: 28°   Ceiling: Unl
Heat Index: 30°   Visibility: 10mi
Dew Point: 21°   Wind: 9mph
Humidity: 65%   Direction: 60°ENE
Pressure: 30.01"   Gusts: NA
Location:  18.2667°N, 65.6476°W
Report Text: TJNR 271553Z AUTO 06008KT 10SM FEW035 28/21 A3001 RMK AO2 SLP161 T02780206 $
Loading
Personal Weather Stations






























Interactive Weather Map New forecast layout! Learn more

10-Day Weather Forecast

Advertisements
Track Severe Weather on mobile